sensor_id;sensor_type;location;lat;lon;timestamp;P1;durP1;ratioP1;P2;durP2;ratioP2
5878;SDS011;2965;42.640;23.370;2023-02-04T05:02:25;6.63;;;6.03;;
5878;SDS011;2965;42.640;23.370;2023-02-04T05:04:51;6.40;;;5.80;;
5878;SDS011;2965;42.640;23.370;2023-02-04T05:07:16;9.73;;;6.37;;
5878;SDS011;2965;42.640;23.370;2023-02-04T05:09:43;10.97;;;6.87;;
5878;SDS011;2965;42.640;23.370;2023-02-04T05:12:08;8.87;;;6.80;;
5878;SDS011;2965;42.640;23.370;2023-02-04T05:14:34;7.10;;;6.50;;
5878;SDS011;2965;42.640;23.370;2023-02-04T05:16:59;11.93;;;7.03;;
5878;SDS011;2965;42.640;23.370;2023-02-04T05:19:24;8.90;;;6.60;;
5878;SDS011;2965;42.640;23.370;2023-02-04T05:21:50;9.37;;;6.97;;
5878;SDS011;2965;42.640;23.370;2023-02-04T05:24:15;13.90;;;5.93;;
5878;SDS011;2965;42.640;23.370;2023-02-04T05:26:40;12.17;;;7.10;;
5878;SDS011;2965;42.640;23.370;2023-02-04T05:29:06;7.70;;;6.90;;
5878;SDS011;2965;42.640;23.370;2023-02-04T05:31:31;18.83;;;8.07;;
5878;SDS011;2965;42.640;23.370;2023-02-04T05:33:58;14.70;;;8.10;;
5878;SDS011;2965;42.640;23.370;2023-02-04T05:36:23;10.37;;;7.80;;
5878;SDS011;2965;42.640;23.370;2023-02-04T05:38:48;11.70;;;7.70;;
5878;SDS011;2965;42.640;23.370;2023-02-04T05:41:14;12.50;;;8.67;;
5878;SDS011;2965;42.640;23.370;2023-02-04T05:43:39;11.00;;;7.87;;
5878;SDS011;2965;42.640;23.370;2023-02-04T05:46:04;11.70;;;7.83;;
5878;SDS011;2965;42.640;23.370;2023-02-04T05:48:30;10.73;;;6.17;;
5878;SDS011;2965;42.640;23.370;2023-02-04T05:50:55;3.50;;;2.97;;
5878;SDS011;2965;42.640;23.370;2023-02-04T05:53:21;1.30;;;1.20;;
5878;SDS011;2965;42.640;23.370;2023-02-04T05:55:46;1.90;;;1.80;;
5878;SDS011;2965;42.640;23.370;2023-02-04T05:58:11;1.90;;;1.80;;
5878;SDS011;2965;42.640;23.370;2023-02-04T06:00:37;1.40;;;1.30;;
5878;SDS011;2965;42.640;23.370;2023-02-04T06:03:02;2.47;;;1.70;;
5878;SDS011;2965;42.640;23.370;2023-02-04T06:05:28;0.83;;;0.83;;
5878;SDS011;2965;42.640;23.370;2023-02-04T06:07:53;1.60;;;1.50;;
5878;SDS011;2965;42.640;23.370;2023-02-04T06:10:19;3.00;;;1.40;;
5878;SDS011;2965;42.640;23.370;2023-02-04T06:12:45;1.57;;;1.47;;
5878;SDS011;2965;42.640;23.370;2023-02-04T06:15:11;1.20;;;1.13;;
5878;SDS011;2965;42.640;23.370;2023-02-04T06:17:37;0.70;;;0.70;;
5878;SDS011;2965;42.640;23.370;2023-02-04T06:20:02;1.17;;;1.03;;
5878;SDS011;2965;42.640;23.370;2023-02-04T06:22:28;0.83;;;0.83;;
5878;SDS011;2965;42.640;23.370;2023-02-04T06:24:53;0.70;;;0.70;;
5878;SDS011;2965;42.640;23.370;2023-02-04T06:27:19;2.20;;;1.37;;
5878;SDS011;2965;42.640;23.370;2023-02-04T06:29:50;2.23;;;2.10;;
5878;SDS011;2965;42.640;23.370;2023-02-04T06:32:17;2.10;;;1.30;;
5878;SDS011;2965;42.640;23.370;2023-02-04T06:34:43;0.80;;;0.80;;
5878;SDS011;2965;42.640;23.370;2023-02-04T06:37:08;0.93;;;0.87;;
5878;SDS011;2965;42.640;23.370;2023-02-04T06:39:34;2.60;;;1.60;;
5878;SDS011;2965;42.640;23.370;2023-02-04T06:41:59;1.53;;;1.43;;
5878;SDS011;2965;42.640;23.370;2023-02-04T06:44:24;1.03;;;0.93;;
5878;SDS011;2965;42.640;23.370;2023-02-04T06:46:50;1.37;;;1.37;;
5878;SDS011;2965;42.640;23.370;2023-02-04T06:49:15;1.17;;;0.70;;
5878;SDS011;2965;42.640;23.370;2023-02-04T06:51:40;2.57;;;1.43;;
5878;SDS011;2965;42.640;23.370;2023-02-04T06:54:06;1.37;;;1.37;;
5878;SDS011;2965;42.640;23.370;2023-02-04T06:56:31;3.90;;;1.93;;
5878;SDS011;2965;42.640;23.370;2023-02-04T06:58:56;2.20;;;1.90;;
5878;SDS011;2965;42.640;23.370;2023-02-04T07:01:22;5.70;;;1.90;;
5878;SDS011;2965;42.640;23.370;2023-02-04T07:03:47;2.67;;;1.33;;
5878;SDS011;2965;42.640;23.370;2023-02-04T07:06:12;1.93;;;1.20;;
5878;SDS011;2965;42.640;23.370;2023-02-04T07:08:38;0.90;;;0.90;;
5878;SDS011;2965;42.640;23.370;2023-02-04T07:11:03;1.73;;;1.03;;
5878;SDS011;2965;42.640;23.370;2023-02-04T07:13:28;2.93;;;1.40;;
5878;SDS011;2965;42.640;23.370;2023-02-04T07:15:54;1.70;;;1.60;;
5878;SDS011;2965;42.640;23.370;2023-02-04T07:18:19;1.30;;;1.30;;
5878;SDS011;2965;42.640;23.370;2023-02-04T07:20:44;3.23;;;1.47;;
5878;SDS011;2965;42.640;23.370;2023-02-04T07:23:10;1.47;;;1.37;;
5878;SDS011;2965;42.640;23.370;2023-02-04T07:25:35;1.40;;;1.40;;
5878;SDS011;2965;42.640;23.370;2023-02-04T07:28:02;18.43;;;1.80;;
5878;SDS011;2965;42.640;23.370;2023-02-04T07:30:29;1.63;;;1.53;;
5878;SDS011;2965;42.640;23.370;2023-02-04T07:32:55;1.30;;;1.10;;
5878;SDS011;2965;42.640;23.370;2023-02-04T07:35:21;1.10;;;1.10;;
5878;SDS011;2965;42.640;23.370;2023-02-04T07:37:46;3.70;;;1.47;;
5878;SDS011;2965;42.640;23.370;2023-02-04T07:40:11;4.83;;;1.40;;
5878;SDS011;2965;42.640;23.370;2023-02-04T07:42:37;3.73;;;1.27;;
5878;SDS011;2965;42.640;23.370;2023-02-04T07:45:02;3.43;;;1.83;;
5878;SDS011;2965;42.640;23.370;2023-02-04T07:47:28;1.50;;;1.40;;
5878;SDS011;2965;42.640;23.370;2023-02-04T07:49:54;1.20;;;1.20;;
5878;SDS011;2965;42.640;23.370;2023-02-04T07:52:21;1.53;;;1.43;;
5878;SDS011;2965;42.640;23.370;2023-02-04T07:54:47;1.10;;;1.10;;
5878;SDS011;2965;42.640;23.370;2023-02-04T07:57:13;1.93;;;1.50;;
5878;SDS011;2965;42.640;23.370;2023-02-04T07:59:38;2.10;;;1.33;;
5878;SDS011;2965;42.640;23.370;2023-02-04T08:02:04;1.13;;;1.07;;
5878;SDS011;2965;42.640;23.370;2023-02-04T08:04:29;5.23;;;1.40;;
5878;SDS011;2965;42.640;23.370;2023-02-04T08:06:54;0.80;;;0.80;;
5878;SDS011;2965;42.640;23.370;2023-02-04T08:09:20;2.87;;;1.10;;
5878;SDS011;2965;42.640;23.370;2023-02-04T08:11:45;1.00;;;1.00;;
5878;SDS011;2965;42.640;23.370;2023-02-04T08:14:11;1.40;;;1.37;;
5878;SDS011;2965;42.640;23.370;2023-02-04T08:16:36;1.57;;;1.47;;
5878;SDS011;2965;42.640;23.370;2023-02-04T08:19:02;1.20;;;1.10;;
5878;SDS011;2965;42.640;23.370;2023-02-04T08:21:27;0.80;;;0.80;;
5878;SDS011;2965;42.640;23.370;2023-02-04T08:23:53;3.00;;;1.57;;
5878;SDS011;2965;42.640;23.370;2023-02-04T08:26:18;1.03;;;1.03;;
5878;SDS011;2965;42.640;23.370;2023-02-04T08:28:44;1.63;;;1.53;;
5878;SDS011;2965;42.640;23.370;2023-02-04T08:31:09;1.07;;;0.97;;
5878;SDS011;2965;42.640;23.370;2023-02-04T08:33:36;1.63;;;1.40;;
5878;SDS011;2965;42.640;23.370;2023-02-04T08:36:02;1.10;;;1.10;;
5878;SDS011;2965;42.640;23.370;2023-02-04T08:38:29;3.10;;;1.97;;
5878;SDS011;2965;42.640;23.370;2023-02-04T08:40:54;1.50;;;1.40;;
5878;SDS011;2965;42.640;23.370;2023-02-04T08:43:20;2.77;;;1.33;;
5878;SDS011;2965;42.640;23.370;2023-02-04T08:45:45;2.00;;;1.70;;
5878;SDS011;2965;42.640;23.370;2023-02-04T08:48:11;1.53;;;1.43;;
5878;SDS011;2965;42.640;23.370;2023-02-04T08:50:36;1.10;;;1.10;;
5878;SDS011;2965;42.640;23.370;2023-02-04T08:53:02;1.37;;;1.27;;
5878;SDS011;2965;42.640;23.370;2023-02-04T08:55:27;1.50;;;1.40;;
5878;SDS011;2965;42.640;23.370;2023-02-04T08:57:52;3.63;;;1.10;;
5878;SDS011;2965;42.640;23.370;2023-02-04T09:00:18;1.60;;;1.50;;
5878;SDS011;2965;42.640;23.370;2023-02-04T09:02:43;3.90;;;1.00;;
5878;SDS011;2965;42.640;23.370;2023-02-04T09:05:09;1.93;;;1.60;;
5878;SDS011;2965;42.640;23.370;2023-02-04T09:07:34;2.07;;;1.97;;
5878;SDS011;2965;42.640;23.370;2023-02-04T09:09:59;2.33;;;2.13;;
5878;SDS011;2965;42.640;23.370;2023-02-04T09:12:25;1.50;;;1.33;;
5878;SDS011;2965;42.640;23.370;2023-02-04T09:14:50;1.30;;;1.20;;
5878;SDS011;2965;42.640;23.370;2023-02-04T09:19:14;1.93;;;1.60;;
5878;SDS011;2965;42.640;23.370;2023-02-04T09:21:40;1.43;;;1.40;;
5878;SDS011;2965;42.640;23.370;2023-02-04T09:24:06;1.40;;;1.30;;
5878;SDS011;2965;42.640;23.370;2023-02-04T09:26:32;0.90;;;0.90;;
5878;SDS011;2965;42.640;23.370;2023-02-04T09:28:57;1.00;;;1.00;;
5878;SDS011;2965;42.640;23.370;2023-02-04T09:31:22;0.67;;;0.63;;
5878;SDS011;2965;42.640;23.370;2023-02-04T09:33:48;0.50;;;0.50;;
5878;SDS011;2965;42.640;23.370;2023-02-04T09:36:13;1.23;;;1.23;;
5878;SDS011;2965;42.640;23.370;2023-02-04T09:38:39;0.57;;;0.50;;
5878;SDS011;2965;42.640;23.370;2023-02-04T09:41:07;1.20;;;1.17;;
5878;SDS011;2965;42.640;23.370;2023-02-04T09:43:37;0.83;;;0.83;;
5878;SDS011;2965;42.640;23.370;2023-02-04T09:46:05;5.03;;;0.70;;
5878;SDS011;2965;42.640;23.370;2023-02-04T09:48:38;2.30;;;1.00;;
5878;SDS011;2965;42.640;23.370;2023-02-04T09:51:04;1.03;;;1.03;;
5878;SDS011;2965;42.640;23.370;2023-02-04T09:53:31;3.07;;;1.53;;
5878;SDS011;2965;42.640;23.370;2023-02-04T09:55:58;1.00;;;0.90;;
5878;SDS011;2965;42.640;23.370;2023-02-04T09:58:23;0.60;;;0.60;;
5878;SDS011;2965;42.640;23.370;2023-02-04T10:01:00;1.83;;;1.30;;
5878;SDS011;2965;42.640;23.370;2023-02-04T10:03:34;5.43;;;1.73;;
5878;SDS011;2965;42.640;23.370;2023-02-04T10:05:59;1.70;;;1.60;;
5878;SDS011;2965;42.640;23.370;2023-02-04T10:08:27;1.10;;;1.10;;
5878;SDS011;2965;42.640;23.370;2023-02-04T10:10:55;0.80;;;0.80;;
5878;SDS011;2965;42.640;23.370;2023-02-04T10:13:23;1.80;;;1.70;;
5878;SDS011;2965;42.640;23.370;2023-02-04T10:16:00;0.90;;;0.90;;
5878;SDS011;2965;42.640;23.370;2023-02-04T10:18:34;1.17;;;0.80;;
5878;SDS011;2965;42.640;23.370;2023-02-04T10:21:22;0.97;;;0.97;;
5878;SDS011;2965;42.640;23.370;2023-02-04T10:23:49;0.57;;;0.57;;
5878;SDS011;2965;42.640;23.370;2023-02-04T10:26:18;0.90;;;0.90;;
5878;SDS011;2965;42.640;23.370;2023-02-04T10:28:45;0.80;;;0.80;;
5878;SDS011;2965;42.640;23.370;2023-02-04T10:31:33;1.27;;;1.23;;
5878;SDS011;2965;42.640;23.370;2023-02-04T10:34:19;1.67;;;0.80;;
5878;SDS011;2965;42.640;23.370;2023-02-04T10:36:56;1.33;;;1.33;;
5878;SDS011;2965;42.640;23.370;2023-02-04T10:39:28;0.87;;;0.87;;
5878;SDS011;2965;42.640;23.370;2023-02-04T10:44:31;0.80;;;0.80;;
5878;SDS011;2965;42.640;23.370;2023-02-04T10:47:02;0.77;;;0.77;;
5878;SDS011;2965;42.640;23.370;2023-02-04T10:49:28;0.63;;;0.63;;
5878;SDS011;2965;42.640;23.370;2023-02-04T10:51:53;0.80;;;0.80;;
5878;SDS011;2965;42.640;23.370;2023-02-04T10:54:19;0.80;;;0.80;;
5878;SDS011;2965;42.640;23.370;2023-02-04T10:59:27;0.70;;;0.70;;
5878;SDS011;2965;42.640;23.370;2023-02-04T11:01:54;0.50;;;0.50;;
5878;SDS011;2965;42.640;23.370;2023-02-04T11:04:21;1.53;;;1.00;;
5878;SDS011;2965;42.640;23.370;2023-02-04T11:06:47;2.40;;;0.60;;
5878;SDS011;2965;42.640;23.370;2023-02-04T11:09:12;0.67;;;0.67;;
5878;SDS011;2965;42.640;23.370;2023-02-04T11:11:43;0.90;;;0.90;;
5878;SDS011;2965;42.640;23.370;2023-02-04T11:16:55;1.13;;;0.70;;
5878;SDS011;2965;42.640;23.370;2023-02-04T11:19:36;0.83;;;0.83;;
5878;SDS011;2965;42.640;23.370;2023-02-04T11:22:04;2.57;;;1.43;;
5878;SDS011;2965;42.640;23.370;2023-02-04T11:24:50;1.07;;;1.07;;
5878;SDS011;2965;42.640;23.370;2023-02-04T11:27:20;0.60;;;0.60;;
5878;SDS011;2965;42.640;23.370;2023-02-04T11:29:47;0.70;;;0.70;;
5878;SDS011;2965;42.640;23.370;2023-02-04T11:35:21;0.70;;;0.70;;
5878;SDS011;2965;42.640;23.370;2023-02-04T11:37:48;1.03;;;1.03;;
5878;SDS011;2965;42.640;23.370;2023-02-04T11:43:01;0.93;;;0.93;;
5878;SDS011;2965;42.640;23.370;2023-02-04T11:45:34;1.30;;;1.20;;
5878;SDS011;2965;42.640;23.370;2023-02-04T11:48:17;1.20;;;1.20;;
5878;SDS011;2965;42.640;23.370;2023-02-04T11:50:56;0.80;;;0.80;;
5878;SDS011;2965;42.640;23.370;2023-02-04T11:53:27;0.83;;;0.83;;
5878;SDS011;2965;42.640;23.370;2023-02-04T11:55:56;0.90;;;0.90;;
5878;SDS011;2965;42.640;23.370;2023-02-04T11:58:23;3.73;;;1.20;;
5878;SDS011;2965;42.640;23.370;2023-02-04T12:00:50;1.50;;;1.50;;
5878;SDS011;2965;42.640;23.370;2023-02-04T12:03:26;1.10;;;1.03;;
5878;SDS011;2965;42.640;23.370;2023-02-04T12:05:54;1.27;;;1.17;;
5878;SDS011;2965;42.640;23.370;2023-02-04T12:10:49;1.00;;;1.00;;
5878;SDS011;2965;42.640;23.370;2023-02-04T12:13:24;1.60;;;1.40;;
5878;SDS011;2965;42.640;23.370;2023-02-04T12:16:08;1.20;;;1.00;;
5878;SDS011;2965;42.640;23.370;2023-02-04T12:18:33;1.37;;;1.27;;
5878;SDS011;2965;42.640;23.370;2023-02-04T12:20:59;1.07;;;1.07;;
5878;SDS011;2965;42.640;23.370;2023-02-04T12:23:26;1.73;;;1.63;;
5878;SDS011;2965;42.640;23.370;2023-02-04T12:25:53;1.17;;;1.17;;
5878;SDS011;2965;42.640;23.370;2023-02-04T12:28:19;0.80;;;0.80;;
5878;SDS011;2965;42.640;23.370;2023-02-04T12:30:45;1.90;;;1.80;;
5878;SDS011;2965;42.640;23.370;2023-02-04T12:33:10;1.63;;;1.53;;
5878;SDS011;2965;42.640;23.370;2023-02-04T12:35:36;1.20;;;1.20;;
5878;SDS011;2965;42.640;23.370;2023-02-04T12:38:02;1.60;;;1.57;;
5878;SDS011;2965;42.640;23.370;2023-02-04T12:40:28;1.57;;;1.47;;
5878;SDS011;2965;42.640;23.370;2023-02-04T12:42:53;1.40;;;1.40;;
5878;SDS011;2965;42.640;23.370;2023-02-04T12:45:19;1.33;;;1.33;;
5878;SDS011;2965;42.640;23.370;2023-02-04T12:47:44;1.37;;;1.27;;
5878;SDS011;2965;42.640;23.370;2023-02-04T12:50:11;1.37;;;1.27;;
5878;SDS011;2965;42.640;23.370;2023-02-04T12:52:38;1.10;;;1.10;;
5878;SDS011;2965;42.640;23.370;2023-02-04T12:55:04;1.50;;;1.40;;
5878;SDS011;2965;42.640;23.370;2023-02-04T12:57:32;1.50;;;1.40;;
5878;SDS011;2965;42.640;23.370;2023-02-04T12:59:58;0.80;;;0.80;;
5878;SDS011;2965;42.640;23.370;2023-02-04T13:02:25;2.97;;;2.07;;
5878;SDS011;2965;42.640;23.370;2023-02-04T13:04:52;1.03;;;1.03;;
5878;SDS011;2965;42.640;23.370;2023-02-04T13:07:17;0.80;;;0.80;;
5878;SDS011;2965;42.640;23.370;2023-02-04T13:09:43;0.80;;;0.80;;
5878;SDS011;2965;42.640;23.370;2023-02-04T13:12:11;2.50;;;1.00;;
5878;SDS011;2965;42.640;23.370;2023-02-04T13:14:40;1.07;;;1.07;;
5878;SDS011;2965;42.640;23.370;2023-02-04T13:17:07;1.70;;;0.80;;
5878;SDS011;2965;42.640;23.370;2023-02-04T13:19:33;0.97;;;0.97;;
5878;SDS011;2965;42.640;23.370;2023-02-04T13:21:58;0.80;;;0.80;;
5878;SDS011;2965;42.640;23.370;2023-02-04T13:24:24;0.53;;;0.50;;
5878;SDS011;2965;42.640;23.370;2023-02-04T13:26:49;0.90;;;0.90;;
5878;SDS011;2965;42.640;23.370;2023-02-04T13:29:15;0.50;;;0.50;;
5878;SDS011;2965;42.640;23.370;2023-02-04T13:31:41;0.60;;;0.50;;
5878;SDS011;2965;42.640;23.370;2023-02-04T13:34:06;0.70;;;0.70;;
5878;SDS011;2965;42.640;23.370;2023-02-04T13:36:32;0.50;;;0.50;;
5878;SDS011;2965;42.640;23.370;2023-02-04T13:38:58;0.60;;;0.60;;
5878;SDS011;2965;42.640;23.370;2023-02-04T13:41:25;0.70;;;0.70;;
5878;SDS011;2965;42.640;23.370;2023-02-04T13:43:50;0.50;;;0.50;;
5878;SDS011;2965;42.640;23.370;2023-02-04T13:46:16;0.60;;;0.60;;
5878;SDS011;2965;42.640;23.370;2023-02-04T13:48:41;0.70;;;0.70;;
5878;SDS011;2965;42.640;23.370;2023-02-04T13:51:07;1.00;;;1.00;;
5878;SDS011;2965;42.640;23.370;2023-02-04T13:53:32;0.93;;;0.93;;
5878;SDS011;2965;42.640;23.370;2023-02-04T13:55:57;0.90;;;0.90;;
5878;SDS011;2965;42.640;23.370;2023-02-04T13:58:23;0.70;;;0.70;;
5878;SDS011;2965;42.640;23.370;2023-02-04T14:00:48;0.83;;;0.83;;
5878;SDS011;2965;42.640;23.370;2023-02-04T14:03:14;0.93;;;0.93;;
5878;SDS011;2965;42.640;23.370;2023-02-04T14:05:39;0.80;;;0.77;;
5878;SDS011;2965;42.640;23.370;2023-02-04T14:08:04;0.93;;;0.93;;
5878;SDS011;2965;42.640;23.370;2023-02-04T14:10:30;0.97;;;0.97;;
5878;SDS011;2965;42.640;23.370;2023-02-04T14:12:55;1.20;;;1.10;;
5878;SDS011;2965;42.640;23.370;2023-02-04T14:15:22;1.67;;;1.20;;
5878;SDS011;2965;42.640;23.370;2023-02-04T14:17:48;2.73;;;1.40;;
5878;SDS011;2965;42.640;23.370;2023-02-04T14:20:13;2.20;;;2.10;;
5878;SDS011;2965;42.640;23.370;2023-02-04T14:22:39;2.27;;;2.17;;
5878;SDS011;2965;42.640;23.370;2023-02-04T14:25:05;1.93;;;1.83;;
5878;SDS011;2965;42.640;23.370;2023-02-04T14:27:30;1.97;;;1.90;;
5878;SDS011;2965;42.640;23.370;2023-02-04T14:29:56;1.40;;;1.40;;
5878;SDS011;2965;42.640;23.370;2023-02-04T14:32:22;1.50;;;1.43;;
5878;SDS011;2965;42.640;23.370;2023-02-04T14:34:47;1.60;;;1.50;;
5878;SDS011;2965;42.640;23.370;2023-02-04T14:37:12;1.30;;;1.20;;
5878;SDS011;2965;42.640;23.370;2023-02-04T14:39:38;1.00;;;1.00;;
5878;SDS011;2965;42.640;23.370;2023-02-04T14:42:03;1.37;;;1.37;;
5878;SDS011;2965;42.640;23.370;2023-02-04T14:44:29;0.90;;;0.90;;
5878;SDS011;2965;42.640;23.370;2023-02-04T14:46:55;1.13;;;1.13;;
5878;SDS011;2965;42.640;23.370;2023-02-04T14:49:20;1.60;;;1.60;;
5878;SDS011;2965;42.640;23.370;2023-02-04T14:51:46;1.80;;;1.70;;
5878;SDS011;2965;42.640;23.370;2023-02-04T14:54:11;1.37;;;1.37;;
5878;SDS011;2965;42.640;23.370;2023-02-04T14:56:37;1.50;;;1.33;;
5878;SDS011;2965;42.640;23.370;2023-02-04T14:59:03;1.93;;;1.63;;
5878;SDS011;2965;42.640;23.370;2023-02-04T15:01:28;1.30;;;1.30;;
5878;SDS011;2965;42.640;23.370;2023-02-04T15:03:54;1.47;;;1.47;;
5878;SDS011;2965;42.640;23.370;2023-02-04T15:06:20;1.50;;;1.43;;
5878;SDS011;2965;42.640;23.370;2023-02-04T15:08:45;3.37;;;2.00;;
5878;SDS011;2965;42.640;23.370;2023-02-04T15:11:11;1.60;;;1.50;;
5878;SDS011;2965;42.640;23.370;2023-02-04T15:13:36;1.30;;;1.20;;
5878;SDS011;2965;42.640;23.370;2023-02-04T15:16:01;0.90;;;0.90;;
5878;SDS011;2965;42.640;23.370;2023-02-04T15:18:27;1.30;;;1.30;;
5878;SDS011;2965;42.640;23.370;2023-02-04T15:20:53;1.73;;;1.63;;
5878;SDS011;2965;42.640;23.370;2023-02-04T15:23:18;1.47;;;1.40;;
5878;SDS011;2965;42.640;23.370;2023-02-04T15:25:44;2.07;;;1.97;;
5878;SDS011;2965;42.640;23.370;2023-02-04T15:28:11;0.93;;;0.93;;
5878;SDS011;2965;42.640;23.370;2023-02-04T15:30:36;2.73;;;2.63;;
5878;SDS011;2965;42.640;23.370;2023-02-04T15:35:46;1.33;;;1.33;;
5878;SDS011;2965;42.640;23.370;2023-02-04T15:38:11;1.03;;;1.03;;
5878;SDS011;2965;42.640;23.370;2023-02-04T15:40:37;1.30;;;1.30;;
5878;SDS011;2965;42.640;23.370;2023-02-04T15:43:02;0.97;;;0.97;;
5878;SDS011;2965;42.640;23.370;2023-02-04T15:45:27;1.93;;;1.60;;
5878;SDS011;2965;42.640;23.370;2023-02-04T15:47:53;1.43;;;1.40;;
5878;SDS011;2965;42.640;23.370;2023-02-04T15:50:18;1.30;;;1.20;;
5878;SDS011;2965;42.640;23.370;2023-02-04T15:52:44;1.63;;;1.63;;
5878;SDS011;2965;42.640;23.370;2023-02-04T15:55:09;1.43;;;1.30;;
5878;SDS011;2965;42.640;23.370;2023-02-04T15:57:34;38.57;;;2.03;;
5878;SDS011;2965;42.640;23.370;2023-02-04T16:00:00;0.80;;;0.80;;
5878;SDS011;2965;42.640;23.370;2023-02-04T16:02:26;1.60;;;1.53;;
5878;SDS011;2965;42.640;23.370;2023-02-04T16:04:52;1.20;;;1.07;;
5878;SDS011;2965;42.640;23.370;2023-02-04T16:07:17;1.73;;;1.63;;
5878;SDS011;2965;42.640;23.370;2023-02-04T16:09:42;1.87;;;1.77;;
5878;SDS011;2965;42.640;23.370;2023-02-04T16:12:08;0.90;;;0.90;;
5878;SDS011;2965;42.640;23.370;2023-02-04T16:14:33;1.93;;;1.73;;
5878;SDS011;2965;42.640;23.370;2023-02-04T16:16:59;1.70;;;1.60;;
5878;SDS011;2965;42.640;23.370;2023-02-04T16:19:25;1.53;;;1.43;;
5878;SDS011;2965;42.640;23.370;2023-02-04T16:21:51;1.73;;;1.63;;
5878;SDS011;2965;42.640;23.370;2023-02-04T16:24:16;1.87;;;1.77;;
5878;SDS011;2965;42.640;23.370;2023-02-04T16:26:42;6.00;;;2.60;;
5878;SDS011;2965;42.640;23.370;2023-02-04T16:29:09;1.70;;;1.60;;
5878;SDS011;2965;42.640;23.370;2023-02-04T16:31:34;2.27;;;1.80;;
5878;SDS011;2965;42.640;23.370;2023-02-04T16:33:59;2.60;;;2.50;;
5878;SDS011;2965;42.640;23.370;2023-02-04T16:36:25;2.60;;;2.40;;
5878;SDS011;2965;42.640;23.370;2023-02-04T16:38:50;1.80;;;1.80;;
5878;SDS011;2965;42.640;23.370;2023-02-04T16:41:15;2.40;;;2.30;;
5878;SDS011;2965;42.640;23.370;2023-02-04T16:43:41;2.80;;;1.77;;
5878;SDS011;2965;42.640;23.370;2023-02-04T16:46:06;2.23;;;2.13;;
5878;SDS011;2965;42.640;23.370;2023-02-04T16:48:32;2.03;;;1.83;;
5878;SDS011;2965;42.640;23.370;2023-02-04T16:50:57;2.33;;;2.10;;
5878;SDS011;2965;42.640;23.370;2023-02-04T16:53:22;2.33;;;2.23;;
5878;SDS011;2965;42.640;23.370;2023-02-04T16:55:48;1.90;;;1.80;;
5878;SDS011;2965;42.640;23.370;2023-02-04T16:58:14;1.93;;;1.77;;
5878;SDS011;2965;42.640;23.370;2023-02-04T17:00:40;1.60;;;1.60;;
5878;SDS011;2965;42.640;23.370;2023-02-04T17:03:10;1.80;;;1.80;;
5878;SDS011;2965;42.640;23.370;2023-02-04T17:05:36;2.50;;;2.13;;
5878;SDS011;2965;42.640;23.370;2023-02-04T17:08:02;2.67;;;2.47;;
5878;SDS011;2965;42.640;23.370;2023-02-04T17:10:28;2.03;;;1.93;;
5878;SDS011;2965;42.640;23.370;2023-02-04T17:13:13;1.87;;;1.77;;
5878;SDS011;2965;42.640;23.370;2023-02-04T17:15:38;10.63;;;2.40;;
5878;SDS011;2965;42.640;23.370;2023-02-04T17:18:04;7.67;;;2.27;;
5878;SDS011;2965;42.640;23.370;2023-02-04T17:20:29;2.67;;;1.63;;
5878;SDS011;2965;42.640;23.370;2023-02-04T17:22:54;2.50;;;2.40;;
5878;SDS011;2965;42.640;23.370;2023-02-04T17:25:20;1.90;;;1.80;;
5878;SDS011;2965;42.640;23.370;2023-02-04T17:27:46;2.47;;;2.37;;
5878;SDS011;2965;42.640;23.370;2023-02-04T17:30:14;2.90;;;2.80;;
5878;SDS011;2965;42.640;23.370;2023-02-04T17:32:40;2.30;;;2.10;;
5878;SDS011;2965;42.640;23.370;2023-02-04T17:35:05;2.93;;;2.47;;
5878;SDS011;2965;42.640;23.370;2023-02-04T17:37:31;2.00;;;1.90;;
5878;SDS011;2965;42.640;23.370;2023-02-04T17:39:56;2.77;;;2.67;;
5878;SDS011;2965;42.640;23.370;2023-02-04T17:42:22;2.77;;;2.67;;
5878;SDS011;2965;42.640;23.370;2023-02-04T17:44:47;3.63;;;3.23;;
5878;SDS011;2965;42.640;23.370;2023-02-04T17:47:14;2.00;;;1.90;;
5878;SDS011;2965;42.640;23.370;2023-02-04T17:49:39;2.33;;;2.23;;
5878;SDS011;2965;42.640;23.370;2023-02-04T17:52:05;3.13;;;2.83;;
5878;SDS011;2965;42.640;23.370;2023-02-04T17:54:30;2.37;;;2.30;;
5878;SDS011;2965;42.640;23.370;2023-02-04T17:56:56;2.13;;;1.93;;
5878;SDS011;2965;42.640;23.370;2023-02-04T17:59:24;2.30;;;2.20;;
5878;SDS011;2965;42.640;23.370;2023-02-04T18:01:51;2.10;;;2.00;;
5878;SDS011;2965;42.640;23.370;2023-02-04T18:04:16;1.70;;;1.60;;
5878;SDS011;2965;42.640;23.370;2023-02-04T18:06:41;2.00;;;1.90;;
5878;SDS011;2965;42.640;23.370;2023-02-04T18:09:14;1.13;;;1.13;;
5878;SDS011;2965;42.640;23.370;2023-02-04T18:11:40;2.40;;;2.30;;
5878;SDS011;2965;42.640;23.370;2023-02-04T18:14:11;1.90;;;1.80;;
5878;SDS011;2965;42.640;23.370;2023-02-04T18:16:42;1.93;;;1.80;;
5878;SDS011;2965;42.640;23.370;2023-02-04T18:21:39;1.83;;;1.57;;
5878;SDS011;2965;42.640;23.370;2023-02-04T18:26:34;1.17;;;1.17;;
5878;SDS011;2965;42.640;23.370;2023-02-04T18:29:39;1.23;;;1.23;;
5878;SDS011;2965;42.640;23.370;2023-02-04T18:34:49;3.03;;;2.83;;
5878;SDS011;2965;42.640;23.370;2023-02-04T18:37:35;1.60;;;1.50;;
5878;SDS011;2965;42.640;23.370;2023-02-04T18:42:33;1.10;;;1.10;;
5878;SDS011;2965;42.640;23.370;2023-02-04T18:47:53;0.90;;;0.90;;
5878;SDS011;2965;42.640;23.370;2023-02-04T18:50:42;1.60;;;1.60;;
5878;SDS011;2965;42.640;23.370;2023-02-04T18:55:36;1.07;;;1.07;;
5878;SDS011;2965;42.640;23.370;2023-02-04T19:00:55;1.83;;;1.77;;
5878;SDS011;2965;42.640;23.370;2023-02-04T19:03:27;1.50;;;1.40;;
5878;SDS011;2965;42.640;23.370;2023-02-04T19:05:55;1.57;;;1.47;;
5878;SDS011;2965;42.640;23.370;2023-02-04T19:10:48;3.90;;;2.00;;
5878;SDS011;2965;42.640;23.370;2023-02-04T19:15:58;1.13;;;1.13;;
5878;SDS011;2965;42.640;23.370;2023-02-04T19:18:36;1.33;;;1.23;;
5878;SDS011;2965;42.640;23.370;2023-02-04T19:21:28;2.27;;;2.17;;
5878;SDS011;2965;42.640;23.370;2023-02-04T19:23:57;2.00;;;1.90;;
5878;SDS011;2965;42.640;23.370;2023-02-04T19:29:37;0.80;;;0.80;;
5878;SDS011;2965;42.640;23.370;2023-02-04T19:35:21;1.40;;;1.30;;
5878;SDS011;2965;42.640;23.370;2023-02-04T19:37:55;0.90;;;0.90;;
5878;SDS011;2965;42.640;23.370;2023-02-04T19:43:00;1.63;;;1.53;;
5878;SDS011;2965;42.640;23.370;2023-02-04T19:45:49;1.87;;;1.77;;
5878;SDS011;2965;42.640;23.370;2023-02-04T19:48:19;1.73;;;1.63;;
5878;SDS011;2965;42.640;23.370;2023-02-04T19:53:43;1.43;;;1.43;;
5878;SDS011;2965;42.640;23.370;2023-02-04T19:58:59;0.60;;;0.57;;
5878;SDS011;2965;42.640;23.370;2023-02-04T20:01:41;1.10;;;1.10;;
5878;SDS011;2965;42.640;23.370;2023-02-04T20:04:08;1.00;;;1.00;;
5878;SDS011;2965;42.640;23.370;2023-02-04T20:06:42;0.87;;;0.87;;
5878;SDS011;2965;42.640;23.370;2023-02-04T20:11:55;1.30;;;1.30;;
5878;SDS011;2965;42.640;23.370;2023-02-04T20:14:38;0.77;;;0.73;;
5878;SDS011;2965;42.640;23.370;2023-02-04T20:20:14;0.60;;;0.57;;
5878;SDS011;2965;42.640;23.370;2023-02-04T20:22:57;1.17;;;1.07;;
5878;SDS011;2965;42.640;23.370;2023-02-04T20:25:45;1.10;;;1.10;;
5878;SDS011;2965;42.640;23.370;2023-02-04T20:28:21;1.20;;;1.20;;
5878;SDS011;2965;42.640;23.370;2023-02-04T20:33:48;1.63;;;1.20;;
5878;SDS011;2965;42.640;23.370;2023-02-04T20:38:51;0.73;;;0.73;;
5878;SDS011;2965;42.640;23.370;2023-02-04T20:41:21;1.00;;;1.00;;
5878;SDS011;2965;42.640;23.370;2023-02-04T20:43:49;1.00;;;1.00;;
5878;SDS011;2965;42.640;23.370;2023-02-04T20:46:22;2.80;;;1.30;;
5878;SDS011;2965;42.640;23.370;2023-02-04T20:48:49;2.07;;;1.10;;
5878;SDS011;2965;42.640;23.370;2023-02-04T20:51:19;0.90;;;0.90;;
5878;SDS011;2965;42.640;23.370;2023-02-04T20:53:47;0.67;;;0.67;;
5878;SDS011;2965;42.640;23.370;2023-02-04T20:58:54;1.00;;;1.00;;
5878;SDS011;2965;42.640;23.370;2023-02-04T21:01:32;0.80;;;0.80;;
5878;SDS011;2965;42.640;23.370;2023-02-04T21:04:00;1.50;;;1.40;;
5878;SDS011;2965;42.640;23.370;2023-02-04T21:06:59;6.13;;;1.20;;
5878;SDS011;2965;42.640;23.370;2023-02-04T21:09:28;0.90;;;0.90;;
5878;SDS011;2965;42.640;23.370;2023-02-04T21:11:56;1.03;;;1.03;;
5878;SDS011;2965;42.640;23.370;2023-02-04T21:14:23;0.97;;;0.97;;
5878;SDS011;2965;42.640;23.370;2023-02-04T21:16:50;4.83;;;1.07;;